sensor_id;sensor_type;location;lat;lon;timestamp;pressure;altitude;pressure_sealevel;temperature;humidity
78210;BME280;67485;48.816;9.930;2023-07-13T00:00:41;96782.78;;;21.30;57.08
78210;BME280;67485;48.816;9.930;2023-07-13T00:03:07;96788.41;;;21.25;56.90
78210;BME280;67485;48.816;9.930;2023-07-13T00:05:33;96777.34;;;21.18;57.08
78210;BME280;67485;48.816;9.930;2023-07-13T00:07:59;96770.31;;;21.17;57.36
78210;BME280;67485;48.816;9.930;2023-07-13T00:10:25;96772.84;;;21.19;57.31
78210;BME280;67485;48.816;9.930;2023-07-13T00:12:51;96760.72;;;21.15;57.29
78210;BME280;67485;48.816;9.930;2023-07-13T00:15:23;96767.13;;;21.12;57.48
78210;BME280;67485;48.816;9.930;2023-07-13T00:17:55;96767.75;;;21.03;57.90
78210;BME280;67485;48.816;9.930;2023-07-13T00:20:22;96764.78;;;20.95;58.25
78210;BME280;67485;48.816;9.930;2023-07-13T00:22:51;96763.91;;;20.81;58.51
78210;BME280;67485;48.816;9.930;2023-07-13T00:25:22;96766.03;;;20.76;58.79
78210;BME280;67485;48.816;9.930;2023-07-13T00:27:50;96768.34;;;20.68;58.96
78210;BME280;67485;48.816;9.930;2023-07-13T00:30:15;96774.31;;;20.58;59.16
78210;BME280;67485;48.816;9.930;2023-07-13T00:32:41;96777.69;;;20.48;59.32
78210;BME280;67485;48.816;9.930;2023-07-13T00:35:07;96777.25;;;20.41;59.28
78210;BME280;67485;48.816;9.930;2023-07-13T00:37:33;96776.59;;;20.37;59.36
78210;BME280;67485;48.816;9.930;2023-07-13T00:40:02;96782.75;;;20.38;59.04
78210;BME280;67485;48.816;9.930;2023-07-13T00:42:29;96781.50;;;20.31;58.94
78210;BME280;67485;48.816;9.930;2023-07-13T00:47:46;96790.41;;;20.30;59.24
78210;BME280;67485;48.816;9.930;2023-07-13T00:50:14;96793.72;;;20.33;59.39
78210;BME280;67485;48.816;9.930;2023-07-13T00:52:43;96812.56;;;20.43;59.25
78210;BME280;67485;48.816;9.930;2023-07-13T00:55:11;96804.09;;;20.51;59.04
78210;BME280;67485;48.816;9.930;2023-07-13T00:57:38;96806.66;;;20.52;58.68
78210;BME280;67485;48.816;9.930;2023-07-13T01:00:07;96807.25;;;20.43;58.77
78210;BME280;67485;48.816;9.930;2023-07-13T01:02:36;96801.09;;;20.42;58.62
78210;BME280;67485;48.816;9.930;2023-07-13T01:05:15;96803.41;;;20.34;58.27
78210;BME280;67485;48.816;9.930;2023-07-13T01:07:43;96797.47;;;20.31;58.80
78210;BME280;67485;48.816;9.930;2023-07-13T01:10:13;96797.47;;;20.44;58.37
78210;BME280;67485;48.816;9.930;2023-07-13T01:12:39;96805.16;;;20.48;57.63
78210;BME280;67485;48.816;9.930;2023-07-13T01:15:32;96811.84;;;20.41;57.57
78210;BME280;67485;48.816;9.930;2023-07-13T01:17:51;96814.03;;;20.34;57.33
78210;BME280;67485;48.816;9.930;2023-07-13T01:20:17;96818.75;;;20.31;57.14
78210;BME280;67485;48.816;9.930;2023-07-13T01:22:43;96815.69;;;20.37;57.04
78210;BME280;67485;48.816;9.930;2023-07-13T01:25:09;96816.63;;;20.36;56.97
78210;BME280;67485;48.816;9.930;2023-07-13T01:27:35;96818.78;;;20.44;56.80
78210;BME280;67485;48.816;9.930;2023-07-13T01:30:02;96820.28;;;20.48;56.79
78210;BME280;67485;48.816;9.930;2023-07-13T01:32:30;96820.28;;;20.48;56.59
78210;BME280;67485;48.816;9.930;2023-07-13T01:34:56;96816.66;;;20.49;56.36
78210;BME280;67485;48.816;9.930;2023-07-13T01:37:26;96827.94;;;20.39;55.91
78210;BME280;67485;48.816;9.930;2023-07-13T01:39:52;96822.69;;;20.38;56.14
78210;BME280;67485;48.816;9.930;2023-07-13T01:42:18;96814.69;;;20.38;56.07
78210;BME280;67485;48.816;9.930;2023-07-13T01:44:44;96824.38;;;20.39;55.98
78210;BME280;67485;48.816;9.930;2023-07-13T01:47:10;96820.44;;;20.32;55.88
78210;BME280;67485;48.816;9.930;2023-07-13T01:49:36;96818.94;;;20.28;56.06
78210;BME280;67485;48.816;9.930;2023-07-13T01:52:03;96822.94;;;20.20;55.84
78210;BME280;67485;48.816;9.930;2023-07-13T01:54:30;96824.88;;;20.18;55.96
78210;BME280;67485;48.816;9.930;2023-07-13T01:56:56;96824.50;;;20.10;56.32
78210;BME280;67485;48.816;9.930;2023-07-13T01:59:22;96831.94;;;20.05;56.09
78210;BME280;67485;48.816;9.930;2023-07-13T02:01:47;96826.78;;;20.02;56.34
78210;BME280;67485;48.816;9.930;2023-07-13T02:04:13;96830.06;;;19.92;56.81
78210;BME280;67485;48.816;9.930;2023-07-13T02:06:39;96822.09;;;19.78;56.97
78210;BME280;67485;48.816;9.930;2023-07-13T02:09:04;96815.63;;;19.68;57.24
78210;BME280;67485;48.816;9.930;2023-07-13T02:11:32;96817.84;;;19.61;57.30
78210;BME280;67485;48.816;9.930;2023-07-13T02:14:03;96830.19;;;19.62;57.33
78210;BME280;67485;48.816;9.930;2023-07-13T02:16:30;96817.38;;;19.54;57.42
78210;BME280;67485;48.816;9.930;2023-07-13T02:18:56;96833.34;;;19.54;57.36
78210;BME280;67485;48.816;9.930;2023-07-13T02:21:23;96834.66;;;19.47;57.60
78210;BME280;67485;48.816;9.930;2023-07-13T02:23:51;96836.53;;;19.45;57.34
78210;BME280;67485;48.816;9.930;2023-07-13T02:26:18;96833.16;;;19.43;57.18
78210;BME280;67485;48.816;9.930;2023-07-13T02:28:44;96842.25;;;19.39;57.05
78210;BME280;67485;48.816;9.930;2023-07-13T02:31:13;96835.03;;;19.41;57.34
78210;BME280;67485;48.816;9.930;2023-07-13T02:33:39;96841.97;;;19.43;57.13
78210;BME280;67485;48.816;9.930;2023-07-13T02:36:05;96839.41;;;19.42;57.05
78210;BME280;67485;48.816;9.930;2023-07-13T02:38:34;96846.22;;;19.32;56.93
78210;BME280;67485;48.816;9.930;2023-07-13T02:41:06;96845.56;;;19.28;57.24
78210;BME280;67485;48.816;9.930;2023-07-13T02:43:33;96833.50;;;19.22;56.79
78210;BME280;67485;48.816;9.930;2023-07-13T02:46:00;96832.75;;;19.20;57.33
78210;BME280;67485;48.816;9.930;2023-07-13T02:48:32;96841.69;;;19.19;57.48
78210;BME280;67485;48.816;9.930;2023-07-13T02:50:58;96834.25;;;19.10;57.56
78210;BME280;67485;48.816;9.930;2023-07-13T02:53:24;96838.91;;;19.06;58.05
78210;BME280;67485;48.816;9.930;2023-07-13T02:55:51;96841.44;;;19.08;57.92
78210;BME280;67485;48.816;9.930;2023-07-13T02:58:16;96833.88;;;19.02;58.18
78210;BME280;67485;48.816;9.930;2023-07-13T03:00:46;96823.25;;;19.02;58.15
78210;BME280;67485;48.816;9.930;2023-07-13T03:03:14;96829.22;;;19.05;58.36
78210;BME280;67485;48.816;9.930;2023-07-13T03:05:42;96841.09;;;19.00;57.94
78210;BME280;67485;48.816;9.930;2023-07-13T03:08:09;96853.09;;;18.91;58.34
78210;BME280;67485;48.816;9.930;2023-07-13T03:10:35;96847.09;;;18.87;58.83
78210;BME280;67485;48.816;9.930;2023-07-13T03:13:01;96853.09;;;18.91;58.76
78210;BME280;67485;48.816;9.930;2023-07-13T03:15:27;96849.75;;;18.87;58.87
78210;BME280;67485;48.816;9.930;2023-07-13T03:17:55;96853.53;;;18.83;58.82
78210;BME280;67485;48.816;9.930;2023-07-13T03:20:20;96859.56;;;18.71;58.82
78210;BME280;67485;48.816;9.930;2023-07-13T03:22:46;96866.53;;;18.57;59.36
78210;BME280;67485;48.816;9.930;2023-07-13T03:25:12;96866.78;;;18.53;59.69
78210;BME280;67485;48.816;9.930;2023-07-13T03:27:38;96860.44;;;18.55;59.58
78210;BME280;67485;48.816;9.930;2023-07-13T03:30:07;96864.13;;;18.53;59.83
78210;BME280;67485;48.816;9.930;2023-07-13T03:32:34;96873.56;;;18.58;59.76
78210;BME280;67485;48.816;9.930;2023-07-13T03:34:59;96879.53;;;18.62;59.69
78210;BME280;67485;48.816;9.930;2023-07-13T03:37:25;96876.88;;;18.62;60.01
78210;BME280;67485;48.816;9.930;2023-07-13T03:39:51;96884.16;;;18.58;59.96
78210;BME280;67485;48.816;9.930;2023-07-13T03:42:17;96883.41;;;18.56;60.05
78210;BME280;67485;48.816;9.930;2023-07-13T03:44:43;96878.19;;;18.55;60.07
78210;BME280;67485;48.816;9.930;2023-07-13T03:47:16;96879.22;;;18.52;60.29
78210;BME280;67485;48.816;9.930;2023-07-13T03:49:42;96878.28;;;18.53;60.10
78210;BME280;67485;48.816;9.930;2023-07-13T03:52:08;96884.53;;;18.52;60.36
78210;BME280;67485;48.816;9.930;2023-07-13T03:54:34;96884.72;;;18.49;60.78
78210;BME280;67485;48.816;9.930;2023-07-13T03:57:01;96893.63;;;18.48;60.80
78210;BME280;67485;48.816;9.930;2023-07-13T03:59:28;96890.97;;;18.48;60.63
78210;BME280;67485;48.816;9.930;2023-07-13T04:01:53;96894.81;;;18.42;60.60
78210;BME280;67485;48.816;9.930;2023-07-13T04:04:20;96890.72;;;18.37;60.99
78210;BME280;67485;48.816;9.930;2023-07-13T04:06:46;96893.97;;;18.26;61.56
78210;BME280;67485;48.816;9.930;2023-07-13T04:09:12;96891.06;;;18.30;61.49
78210;BME280;67485;48.816;9.930;2023-07-13T04:11:37;96889.00;;;18.36;61.59
78210;BME280;67485;48.816;9.930;2023-07-13T04:14:03;96897.72;;;18.38;61.18
78210;BME280;67485;48.816;9.930;2023-07-13T04:16:29;96895.94;;;18.38;61.65
78210;BME280;67485;48.816;9.930;2023-07-13T04:18:55;96907.81;;;18.47;61.51
78210;BME280;67485;48.816;9.930;2023-07-13T04:21:26;96901.22;;;18.54;61.56
78210;BME280;67485;48.816;9.930;2023-07-13T04:23:52;96905.22;;;18.61;61.88
78210;BME280;67485;48.816;9.930;2023-07-13T04:26:18;96910.16;;;18.68;61.25
78210;BME280;67485;48.816;9.930;2023-07-13T04:28:47;96914.97;;;18.77;60.50
78210;BME280;67485;48.816;9.930;2023-07-13T04:31:12;96916.47;;;18.81;59.95
78210;BME280;67485;48.816;9.930;2023-07-13T04:33:38;96913.66;;;18.84;59.42
78210;BME280;67485;48.816;9.930;2023-07-13T04:36:04;96902.63;;;18.92;59.35
78210;BME280;67485;48.816;9.930;2023-07-13T04:38:32;96911.06;;;18.99;58.86
78210;BME280;67485;48.816;9.930;2023-07-13T04:41:00;96908.41;;;18.99;58.54
78210;BME280;67485;48.816;9.930;2023-07-13T04:43:27;96911.00;;;19.15;58.56
78210;BME280;67485;48.816;9.930;2023-07-13T04:45:52;96919.19;;;19.26;58.03
78210;BME280;67485;48.816;9.930;2023-07-13T04:48:18;96915.28;;;19.17;58.45
78210;BME280;67485;48.816;9.930;2023-07-13T04:50:45;96912.31;;;19.07;58.88
78210;BME280;67485;48.816;9.930;2023-07-13T04:53:11;96911.75;;;18.86;59.92
78210;BME280;67485;48.816;9.930;2023-07-13T04:55:37;96912.00;;;18.98;59.67
78210;BME280;67485;48.816;9.930;2023-07-13T04:58:03;96916.06;;;19.19;59.36
78210;BME280;67485;48.816;9.930;2023-07-13T05:00:30;96908.16;;;19.18;59.83
78210;BME280;67485;48.816;9.930;2023-07-13T05:02:57;96909.50;;;19.25;59.57
78210;BME280;67485;48.816;9.930;2023-07-13T05:05:25;96908.28;;;19.31;59.13
78210;BME280;67485;48.816;9.930;2023-07-13T05:07:51;96910.38;;;19.40;58.70
78210;BME280;67485;48.816;9.930;2023-07-13T05:10:17;96912.56;;;19.48;58.92
78210;BME280;67485;48.816;9.930;2023-07-13T05:12:43;96915.63;;;19.56;59.15
78210;BME280;67485;48.816;9.930;2023-07-13T05:15:09;96922.34;;;19.61;58.50
78210;BME280;67485;48.816;9.930;2023-07-13T05:17:35;96923.78;;;19.67;58.41
78210;BME280;67485;48.816;9.930;2023-07-13T05:20:01;96923.69;;;19.69;58.36
78210;BME280;67485;48.816;9.930;2023-07-13T05:22:27;96924.47;;;19.71;57.89
78210;BME280;67485;48.816;9.930;2023-07-13T05:24:52;96929.38;;;19.63;57.37
78210;BME280;67485;48.816;9.930;2023-07-13T05:27:18;96927.75;;;19.60;56.85
78210;BME280;67485;48.816;9.930;2023-07-13T05:29:43;96928.16;;;19.68;57.05
78210;BME280;67485;48.816;9.930;2023-07-13T05:32:09;96926.34;;;19.69;56.75
78210;BME280;67485;48.816;9.930;2023-07-13T05:34:35;96921.41;;;19.77;56.47
78210;BME280;67485;48.816;9.930;2023-07-13T05:37:01;96932.38;;;19.87;56.00
78210;BME280;67485;48.816;9.930;2023-07-13T05:39:26;96931.13;;;19.92;55.94
78210;BME280;67485;48.816;9.930;2023-07-13T05:41:53;96930.63;;;20.00;55.91
78210;BME280;67485;48.816;9.930;2023-07-13T05:44:18;96923.53;;;20.01;55.84
78210;BME280;67485;48.816;9.930;2023-07-13T05:46:44;96933.94;;;20.04;55.63
78210;BME280;67485;48.816;9.930;2023-07-13T05:49:10;96931.41;;;20.02;55.46
78210;BME280;67485;48.816;9.930;2023-07-13T05:51:36;96931.97;;;19.93;55.46
78210;BME280;67485;48.816;9.930;2023-07-13T05:54:02;96931.97;;;19.93;55.78
78210;BME280;67485;48.816;9.930;2023-07-13T05:56:27;96935.00;;;20.01;55.80
78210;BME280;67485;48.816;9.930;2023-07-13T05:58:53;96938.13;;;20.08;55.73
78210;BME280;67485;48.816;9.930;2023-07-13T06:01:19;96939.09;;;20.07;55.52
78210;BME280;67485;48.816;9.930;2023-07-13T06:03:46;96940.78;;;20.08;55.49
78210;BME280;67485;48.816;9.930;2023-07-13T06:06:12;96942.50;;;20.09;54.80
78210;BME280;67485;48.816;9.930;2023-07-13T06:08:38;96944.50;;;20.05;54.86
78210;BME280;67485;48.816;9.930;2023-07-13T06:11:19;96946.59;;;20.15;54.68
78210;BME280;67485;48.816;9.930;2023-07-13T06:13:45;96948.75;;;20.08;54.61
78210;BME280;67485;48.816;9.930;2023-07-13T06:16:11;96945.16;;;20.09;54.56
78210;BME280;67485;48.816;9.930;2023-07-13T06:18:37;96956.28;;;20.16;54.29
78210;BME280;67485;48.816;9.930;2023-07-13T06:21:11;96960.16;;;20.24;53.96
78210;BME280;67485;48.816;9.930;2023-07-13T06:23:37;96951.63;;;20.88;52.32
78210;BME280;67485;48.816;9.930;2023-07-13T06:26:04;96956.16;;;21.01;51.47
78210;BME280;67485;48.816;9.930;2023-07-13T06:28:30;96953.41;;;20.75;51.78
78210;BME280;67485;48.816;9.930;2023-07-13T06:30:58;96956.63;;;20.66;52.18
78210;BME280;67485;48.816;9.930;2023-07-13T06:33:24;96961.97;;;20.66;52.99
78210;BME280;67485;48.816;9.930;2023-07-13T06:35:50;96952.03;;;20.82;52.96
78210;BME280;67485;48.816;9.930;2023-07-13T06:38:15;96957.13;;;20.72;51.98
78210;BME280;67485;48.816;9.930;2023-07-13T06:40:41;96960.88;;;20.83;51.45
78210;BME280;67485;48.816;9.930;2023-07-13T06:43:07;96963.28;;;22.05;49.72
78210;BME280;67485;48.816;9.930;2023-07-13T06:45:40;96966.16;;;22.89;47.50
78210;BME280;67485;48.816;9.930;2023-07-13T06:48:06;96977.31;;;22.46;47.25
78210;BME280;67485;48.816;9.930;2023-07-13T06:50:33;96975.38;;;22.48;47.49
78210;BME280;67485;48.816;9.930;2023-07-13T06:52:59;96976.38;;;23.20;46.19
78210;BME280;67485;48.816;9.930;2023-07-13T06:55:25;96979.78;;;24.04;44.16
78210;BME280;67485;48.816;9.930;2023-07-13T06:57:51;96968.00;;;24.85;42.29
78210;BME280;67485;48.816;9.930;2023-07-13T07:00:17;96975.88;;;26.15;40.79
78210;BME280;67485;48.816;9.930;2023-07-13T07:02:43;96966.19;;;26.84;38.56
78210;BME280;67485;48.816;9.930;2023-07-13T07:05:08;96970.81;;;26.62;38.11
78210;BME280;67485;48.816;9.930;2023-07-13T07:07:34;96972.50;;;25.70;39.31
78210;BME280;67485;48.816;9.930;2023-07-13T07:10:00;96976.13;;;25.27;39.11
78210;BME280;67485;48.816;9.930;2023-07-13T07:12:26;96983.19;;;24.96;39.90
78210;BME280;67485;48.816;9.930;2023-07-13T07:14:51;96983.88;;;24.31;41.11
78210;BME280;67485;48.816;9.930;2023-07-13T07:17:17;96995.00;;;24.04;42.10
78210;BME280;67485;48.816;9.930;2023-07-13T07:19:43;96999.69;;;23.89;42.25
78210;BME280;67485;48.816;9.930;2023-07-13T07:22:08;97008.19;;;23.83;43.27
78210;BME280;67485;48.816;9.930;2023-07-13T07:24:34;97011.28;;;23.54;42.93
78210;BME280;67485;48.816;9.930;2023-07-13T07:26:59;96996.09;;;23.19;43.74
78210;BME280;67485;48.816;9.930;2023-07-13T07:29:25;97006.97;;;23.40;43.91
78210;BME280;67485;48.816;9.930;2023-07-13T07:31:53;97002.06;;;23.09;43.74
78210;BME280;67485;48.816;9.930;2023-07-13T07:34:19;97010.19;;;23.21;44.10
78210;BME280;67485;48.816;9.930;2023-07-13T07:36:44;97001.31;;;23.67;43.87
78210;BME280;67485;48.816;9.930;2023-07-13T07:39:10;97006.78;;;24.12;42.81
78210;BME280;67485;48.816;9.930;2023-07-13T07:41:37;96994.94;;;25.16;41.06
78210;BME280;67485;48.816;9.930;2023-07-13T07:44:03;97003.53;;;25.63;38.62
78210;BME280;67485;48.816;9.930;2023-07-13T07:46:29;97005.66;;;26.43;37.30
78210;BME280;67485;48.816;9.930;2023-07-13T07:48:56;97007.50;;;26.83;36.04
78210;BME280;67485;48.816;9.930;2023-07-13T07:51:22;97002.03;;;26.94;35.88
78210;BME280;67485;48.816;9.930;2023-07-13T07:53:48;97019.22;;;27.52;34.36
78210;BME280;67485;48.816;9.930;2023-07-13T07:56:13;97004.97;;;27.89;34.44
78210;BME280;67485;48.816;9.930;2023-07-13T07:58:42;97006.66;;;28.47;34.13
78210;BME280;67485;48.816;9.930;2023-07-13T08:01:07;96996.69;;;28.58;31.50
78210;BME280;67485;48.816;9.930;2023-07-13T08:03:33;96992.09;;;28.96;31.40
78210;BME280;67485;48.816;9.930;2023-07-13T08:05:59;97001.41;;;28.56;32.13
78210;BME280;67485;48.816;9.930;2023-07-13T08:08:25;97001.69;;;28.15;32.65
78210;BME280;67485;48.816;9.930;2023-07-13T08:10:50;97001.72;;;28.43;31.60
78210;BME280;67485;48.816;9.930;2023-07-13T08:13:16;97004.28;;;29.54;30.54
78210;BME280;67485;48.816;9.930;2023-07-13T08:15:42;97005.34;;;29.80;30.72
78210;BME280;67485;48.816;9.930;2023-07-13T08:18:07;97003.47;;;30.24;30.20
78210;BME280;67485;48.816;9.930;2023-07-13T08:20:38;96999.84;;;29.45;29.30
78210;BME280;67485;48.816;9.930;2023-07-13T08:23:05;97004.28;;;29.72;30.05
78210;BME280;67485;48.816;9.930;2023-07-13T08:25:31;97007.78;;;30.70;29.02
78210;BME280;67485;48.816;9.930;2023-07-13T08:27:57;97006.13;;;30.85;28.50
78210;BME280;67485;48.816;9.930;2023-07-13T08:30:22;97004.69;;;30.65;29.02
78210;BME280;67485;48.816;9.930;2023-07-13T08:32:48;97003.63;;;30.49;28.66
78210;BME280;67485;48.816;9.930;2023-07-13T08:35:15;96998.47;;;31.32;28.09
78210;BME280;67485;48.816;9.930;2023-07-13T08:37:41;97002.03;;;31.49;27.67
78210;BME280;67485;48.816;9.930;2023-07-13T08:40:11;97002.22;;;31.72;26.87
78210;BME280;67485;48.816;9.930;2023-07-13T08:42:45;96994.03;;;32.30;26.29
78210;BME280;67485;48.816;9.930;2023-07-13T08:45:25;96992.66;;;32.17;26.35
78210;BME280;67485;48.816;9.930;2023-07-13T08:48:03;97000.84;;;32.01;26.41
78210;BME280;67485;48.816;9.930;2023-07-13T08:50:33;97006.91;;;32.11;26.93
78210;BME280;67485;48.816;9.930;2023-07-13T08:53:01;97007.25;;;32.33;26.11
78210;BME280;67485;48.816;9.930;2023-07-13T08:55:34;97006.59;;;32.23;25.92
78210;BME280;67485;48.816;9.930;2023-07-13T08:58:13;97010.28;;;32.86;25.10
78210;BME280;67485;48.816;9.930;2023-07-13T09:00:54;97017.75;;;31.53;27.97
78210;BME280;67485;48.816;9.930;2023-07-13T09:03:26;97008.00;;;31.69;26.69
78210;BME280;67485;48.816;9.930;2023-07-13T09:05:58;97011.78;;;30.66;27.37
78210;BME280;67485;48.816;9.930;2023-07-13T09:08:53;97013.25;;;29.37;28.83
78210;BME280;67485;48.816;9.930;2023-07-13T09:11:38;97010.31;;;30.71;27.31
78210;BME280;67485;48.816;9.930;2023-07-13T09:14:30;97006.19;;;32.50;25.29
78210;BME280;67485;48.816;9.930;2023-07-13T09:16:59;96996.03;;;32.36;23.62
78210;BME280;67485;48.816;9.930;2023-07-13T09:19:30;97010.28;;;32.38;23.84
78210;BME280;67485;48.816;9.930;2023-07-13T09:21:59;97004.88;;;32.13;23.25
78210;BME280;67485;48.816;9.930;2023-07-13T09:24:46;97007.13;;;33.37;23.07
78210;BME280;67485;48.816;9.930;2023-07-13T09:27:21;97012.75;;;33.04;22.59
78210;BME280;67485;48.816;9.930;2023-07-13T09:32:40;97006.22;;;33.13;21.62
78210;BME280;67485;48.816;9.930;2023-07-13T09:35:16;97002.41;;;33.54;22.12
78210;BME280;67485;48.816;9.930;2023-07-13T09:37:44;97004.44;;;34.14;21.12
78210;BME280;67485;48.816;9.930;2023-07-13T09:40:17;97015.06;;;32.03;22.74
78210;BME280;67485;48.816;9.930;2023-07-13T09:42:46;97018.84;;;32.58;22.41
78210;BME280;67485;48.816;9.930;2023-07-13T09:45:17;97017.09;;;32.26;22.74
78210;BME280;67485;48.816;9.930;2023-07-13T09:47:59;97018.81;;;31.85;22.83
78210;BME280;67485;48.816;9.930;2023-07-13T09:50:25;97013.69;;;32.15;23.27
78210;BME280;67485;48.816;9.930;2023-07-13T09:52:50;97004.28;;;32.99;22.06
78210;BME280;67485;48.816;9.930;2023-07-13T09:55:29;97015.56;;;32.79;22.33
78210;BME280;67485;48.816;9.930;2023-07-13T09:57:55;97018.84;;;31.69;23.51
78210;BME280;67485;48.816;9.930;2023-07-13T10:00:26;97020.16;;;31.65;23.06
78210;BME280;67485;48.816;9.930;2023-07-13T10:03:20;97021.72;;;30.49;24.24
78210;BME280;67485;48.816;9.930;2023-07-13T10:05:46;97031.97;;;29.20;25.67
78210;BME280;67485;48.816;9.930;2023-07-13T10:08:30;97014.50;;;28.96;26.01
78210;BME280;67485;48.816;9.930;2023-07-13T10:11:10;97009.09;;;29.42;25.69
78210;BME280;67485;48.816;9.930;2023-07-13T10:13:37;97011.94;;;30.30;25.67
78210;BME280;67485;48.816;9.930;2023-07-13T10:16:06;97015.00;;;31.12;24.48
78210;BME280;67485;48.816;9.930;2023-07-13T10:21:18;97019.53;;;30.00;25.19
78210;BME280;67485;48.816;9.930;2023-07-13T10:23:50;97008.44;;;30.64;24.76
78210;BME280;67485;48.816;9.930;2023-07-13T10:26:22;97018.63;;;31.46;23.80
78210;BME280;67485;48.816;9.930;2023-07-13T10:28:53;97019.47;;;31.46;23.55
78210;BME280;67485;48.816;9.930;2023-07-13T10:31:21;97021.16;;;31.39;23.24
78210;BME280;67485;48.816;9.930;2023-07-13T10:33:46;97027.28;;;31.74;23.19
78210;BME280;67485;48.816;9.930;2023-07-13T10:36:18;97025.22;;;32.26;22.46
78210;BME280;67485;48.816;9.930;2023-07-13T10:38:46;97013.72;;;31.82;23.56
78210;BME280;67485;48.816;9.930;2023-07-13T10:41:20;97016.59;;;31.97;22.25
78210;BME280;67485;48.816;9.930;2023-07-13T10:43:50;97020.91;;;30.65;23.93
78210;BME280;67485;48.816;9.930;2023-07-13T10:46:19;97024.75;;;31.64;23.63
78210;BME280;67485;48.816;9.930;2023-07-13T10:48:49;97013.63;;;33.28;22.30
78210;BME280;67485;48.816;9.930;2023-07-13T10:51:18;97003.78;;;34.11;21.37
78210;BME280;67485;48.816;9.930;2023-07-13T10:53:47;97002.66;;;33.44;22.00
78210;BME280;67485;48.816;9.930;2023-07-13T10:56:29;97001.06;;;33.73;21.16
78210;BME280;67485;48.816;9.930;2023-07-13T11:01:54;96998.56;;;34.55;20.33
78210;BME280;67485;48.816;9.930;2023-07-13T11:04:22;96990.38;;;34.25;19.43
78210;BME280;67485;48.816;9.930;2023-07-13T11:06:56;96992.22;;;33.25;20.66
78210;BME280;67485;48.816;9.930;2023-07-13T11:12:18;96996.41;;;31.09;21.77
78210;BME280;67485;48.816;9.930;2023-07-13T11:20:34;96988.72;;;32.93;21.61
78210;BME280;67485;48.816;9.930;2023-07-13T11:25:38;96985.66;;;32.88;21.65
78210;BME280;67485;48.816;9.930;2023-07-13T11:36:03;96990.41;;;29.13;24.90
78210;BME280;67485;48.816;9.930;2023-07-13T11:38:39;96987.75;;;28.85;25.52
78210;BME280;67485;48.816;9.930;2023-07-13T11:41:17;96975.78;;;29.78;24.43
78210;BME280;67485;48.816;9.930;2023-07-13T11:43:45;96996.72;;;28.48;25.77
78210;BME280;67485;48.816;9.930;2023-07-13T11:46:20;96985.25;;;31.12;24.47
78210;BME280;67485;48.816;9.930;2023-07-13T11:48:46;96984.91;;;32.14;22.48
78210;BME280;67485;48.816;9.930;2023-07-13T11:51:25;96978.97;;;32.67;22.58
78210;BME280;67485;48.816;9.930;2023-07-13T11:53:54;96975.88;;;32.87;23.33
78210;BME280;67485;48.816;9.930;2023-07-13T11:56:21;96976.94;;;33.32;22.06
78210;BME280;67485;48.816;9.930;2023-07-13T11:58:50;96982.16;;;33.42;21.35
78210;BME280;67485;48.816;9.930;2023-07-13T12:01:20;96974.97;;;33.18;21.36
78210;BME280;67485;48.816;9.930;2023-07-13T12:03:48;96968.47;;;33.27;21.01
78210;BME280;67485;48.816;9.930;2023-07-13T12:06:34;96975.28;;;34.07;21.33
78210;BME280;67485;48.816;9.930;2023-07-13T12:09:13;96979.94;;;32.34;22.97
78210;BME280;67485;48.816;9.930;2023-07-13T12:11:43;96966.66;;;31.09;24.88
78210;BME280;67485;48.816;9.930;2023-07-13T12:14:15;96977.50;;;31.92;23.16
78210;BME280;67485;48.816;9.930;2023-07-13T12:16:41;96987.06;;;32.36;22.81
78210;BME280;67485;48.816;9.930;2023-07-13T12:19:33;96980.19;;;31.59;23.51
78210;BME280;67485;48.816;9.930;2023-07-13T12:21:59;96983.59;;;30.42;25.00
78210;BME280;67485;48.816;9.930;2023-07-13T12:24:25;96981.91;;;30.41;25.33
78210;BME280;67485;48.816;9.930;2023-07-13T12:26:54;96979.91;;;30.86;26.16
78210;BME280;67485;48.816;9.930;2023-07-13T12:29:20;96986.66;;;31.66;23.91
78210;BME280;67485;48.816;9.930;2023-07-13T12:31:48;96981.06;;;29.62;25.72
78210;BME280;67485;48.816;9.930;2023-07-13T12:34:20;96980.47;;;30.20;26.25
78210;BME280;67485;48.816;9.930;2023-07-13T12:36:54;96977.38;;;30.84;24.91
78210;BME280;67485;48.816;9.930;2023-07-13T12:39:28;96976.88;;;30.89;25.68
78210;BME280;67485;48.816;9.930;2023-07-13T12:44:41;96976.63;;;30.58;24.35
78210;BME280;67485;48.816;9.930;2023-07-13T12:47:12;96968.47;;;31.00;23.73
78210;BME280;67485;48.816;9.930;2023-07-13T12:49:59;96981.06;;;29.25;25.92
78210;BME280;67485;48.816;9.930;2023-07-13T12:52:34;96975.16;;;29.84;27.17
78210;BME280;67485;48.816;9.930;2023-07-13T12:55:07;96971.19;;;30.49;25.26
78210;BME280;67485;48.816;9.930;2023-07-13T12:57:58;96965.75;;;31.00;24.99
78210;BME280;67485;48.816;9.930;2023-07-13T13:00:32;96960.69;;;31.05;25.11
78210;BME280;67485;48.816;9.930;2023-07-13T13:03:05;96963.28;;;31.40;24.49
78210;BME280;67485;48.816;9.930;2023-07-13T13:05:33;96961.78;;;31.79;24.17
78210;BME280;67485;48.816;9.930;2023-07-13T13:07:59;96960.66;;;30.97;24.55
78210;BME280;67485;48.816;9.930;2023-07-13T13:10:25;96955.78;;;30.15;25.50
78210;BME280;67485;48.816;9.930;2023-07-13T13:12:52;96958.09;;;29.57;26.18
78210;BME280;67485;48.816;9.930;2023-07-13T13:15:18;96961.72;;;28.76;26.74
78210;BME280;67485;48.816;9.930;2023-07-13T13:17:43;96959.97;;;29.39;26.84
78210;BME280;67485;48.816;9.930;2023-07-13T13:20:21;96950.22;;;28.74;27.11
78210;BME280;67485;48.816;9.930;2023-07-13T13:22:47;96954.31;;;28.78;28.04
78210;BME280;67485;48.816;9.930;2023-07-13T13:25:14;96959.03;;;28.00;28.93
78210;BME280;67485;48.816;9.930;2023-07-13T13:27:41;96961.28;;;28.15;29.00
78210;BME280;67485;48.816;9.930;2023-07-13T13:32:46;96938.88;;;29.87;27.43
78210;BME280;67485;48.816;9.930;2023-07-13T13:35:16;96941.34;;;30.33;26.14
78210;BME280;67485;48.816;9.930;2023-07-13T13:37:43;96946.69;;;29.27;27.50
78210;BME280;67485;48.816;9.930;2023-07-13T13:40:21;96946.53;;;29.47;27.31
78210;BME280;67485;48.816;9.930;2023-07-13T13:42:48;96945.00;;;29.71;26.99